Time;durP1;ratioP1;P1;durP2;ratioP2;P2;SDS_P1;SDS_P2;PMS_P1;PMS_P2;Temp;Humidity;BMP_temperature;BMP_pressure;BME280_temperature;BME280_humidity;BME280_pressure;Samples;Min_cycle;Max_cycle;Signal;HPM_P1;HPM_P2
2022/11/21 00:00:10;;;;;;;;;;;;;;;-147.11;100.00;61570.13;5079516;28;19963;-52
2022/11/21 00:02:36;;;;;;;;;;;;;;;-147.11;100.00;61570.13;5088527;28;19923;-53
2022/11/21 00:05:01;;;;;;;;;;;;;;;-147.11;100.00;61570.13;5080842;28;20374;-56
2022/11/21 00:07:26;;;;;;;;;;;;;;;-147.11;100.00;61570.13;5088186;28;19935;-53
2022/11/21 00:09:52;;;;;;;;;;;;;;;-147.11;100.00;61570.13;5089122;28;19939;-54
2022/11/21 00:12:17;;;;;;;;;;;;;;;-147.11;100.00;61570.13;5077137;28;19939;-54
2022/11/21 00:14:42;;;;;;;;;;;;;;;-147.11;100.00;61570.13;5079238;28;19931;-54
2022/11/21 00:17:08;;;;;;;;;;;;;;;-147.11;100.00;61570.13;5063894;28;19988;-53
2022/11/21 00:19:33;;;;;;;;;;;;;;;-147.11;100.00;61570.13;5088141;28;19927;-53
2022/11/21 00:21:59;;;;;;;;;;;;;;;-147.11;100.00;61570.13;5083430;28;19928;-52
2022/11/21 00:24:24;;;;;;;;;;;;;;;-147.11;100.00;61570.13;5079675;28;19973;-53
2022/11/21 00:26:50;;;;;;;;;;;;;;;-147.11;100.00;61570.13;5074867;28;19924;-55
2022/11/21 00:29:15;;;;;;;;;;;;;;;-147.11;100.00;61570.13;5076874;28;20336;-53
2022/11/21 00:31:40;;;;;;;;;;;;;;;-147.11;100.00;61570.13;5075430;28;19977;-56
2022/11/21 00:34:06;;;;;;;;;;;;;;;-147.11;100.00;61570.13;5082236;28;19974;-53
2022/11/21 00:36:31;;;;;;;;;;;;;;;-147.11;100.00;61570.13;5082962;28;19924;-52
2022/11/21 00:38:56;;;;;;;;;;;;;;;-147.11;100.00;61570.13;5081593;28;20038;-53
2022/11/21 00:41:21;;;;;;;;;;;;;;;-147.11;100.00;61570.13;5077672;28;20449;-52
2022/11/21 00:43:47;;;;;;;;;;;;;;;-147.11;100.00;61570.13;5079341;28;20121;-53
2022/11/21 00:46:12;;;;;;;;;;;;;;;-147.11;100.00;61570.13;5081497;28;19921;-52
2022/11/21 00:48:37;;;;;;;;;;;;;;;-147.11;100.00;61570.13;5079204;28;19928;-55
2022/11/21 00:51:03;;;;;;;;;;;;;;;-147.11;100.00;61570.13;5078299;28;20741;-53
2022/11/21 00:53:28;;;;;;;;;;;;;;;-147.11;100.00;61570.13;5083054;28;19957;-53
2022/11/21 00:55:54;;;;;;;;;;;;;;;-147.11;100.00;61570.13;5083299;28;19916;-52
2022/11/21 00:58:19;;;;;;;;;;;;;;;-147.11;100.00;61570.13;5083346;28;19927;-53
2022/11/21 01:00:45;;;;;;;;;;;;;;;-147.11;100.00;61570.13;5080074;28;20065;-52
2022/11/21 01:03:10;;;;;;;;;;;;;;;-147.11;100.00;61570.13;5083451;28;19924;-53
2022/11/21 01:05:35;;;;;;;;;;;;;;;-147.11;100.00;61570.13;5084076;28;19920;-52
2022/11/21 01:08:00;;;;;;;;;;;;;;;-147.11;100.00;61570.13;5078671;28;19975;-53
2022/11/21 01:10:26;;;;;;;;;;;;;;;-147.11;100.00;61570.13;5082892;28;19934;-52
2022/11/21 01:12:51;;;;;;;;;;;;;;;-147.11;100.00;61570.13;5080245;28;20605;-52
2022/11/21 01:15:16;;;;;;;;;;;;;;;-147.11;100.00;61570.13;5077944;28;19920;-52
2022/11/21 01:17:42;;;;;;;;;;;;;;;-147.11;100.00;61570.13;5073363;28;19932;-53
2022/11/21 01:20:07;;;;;;;;;;;;;;;-147.11;100.00;61570.13;5077322;28;20587;-53
2022/11/21 01:22:33;;;;;;;;;;;;;;;-147.11;100.00;61570.13;5065944;28;19928;-54
2022/11/21 01:24:58;;;;;;;;;;;;;;;-147.11;100.00;61570.13;5080647;28;20023;-55
2022/11/21 01:27:24;;;;;;;;;;;;;;;-147.11;100.00;61570.13;5077904;28;19935;-52
2022/11/21 01:29:51;;;;;;;;;;;;;;;-147.11;100.00;61570.13;5081078;28;20026;-53
2022/11/21 01:32:17;;;;;;;;;;;;;;;-147.11;100.00;61570.13;5073217;28;20365;-52
2022/11/21 01:34:42;;;;;;;;;;;;;;;-147.11;100.00;61570.13;5085424;28;20319;-52
2022/11/21 01:37:07;;;;;;;;;;;;;;;-147.11;100.00;61570.13;5079551;28;20035;-52
2022/11/21 01:39:32;;;;;;;;;;;;;;;-147.11;100.00;61570.13;5078608;28;19916;-52
2022/11/21 01:41:58;;;;;;;;;;;;;;;-147.11;100.00;61570.13;5077350;28;19924;-53
2022/11/21 01:44:25;;;;;;;;;;;;;;;-147.11;100.00;61570.13;5076749;28;20022;-52
2022/11/21 01:46:51;;;;;;;;;;;;;;;-147.11;100.00;61570.13;5076057;28;20006;-53
2022/11/21 01:49:22;;;;;;;;;;;;;;;-147.11;100.00;61570.13;5079581;28;20496;-52
2022/11/21 01:52:06;;;;;;;;;;;;;;;-147.11;100.00;61570.13;5078128;28;19939;-56
2022/11/21 01:54:37;;;;;;;;;;;;;;;-147.11;100.00;61570.13;5084415;28;19931;-53
2022/11/21 01:57:13;;;;;;;;;;;;;;;-147.11;100.00;61570.13;5078120;28;19916;-52
2022/11/21 01:59:42;;;;;;;;;;;;;;;-147.11;100.00;61570.13;5084590;28;19955;-53
2022/11/21 02:02:09;;;;;;;;;;;;;;;-147.11;100.00;61570.13;5084305;28;20052;-53
2022/11/21 02:04:35;;;;;;;;;;;;;;;-147.11;100.00;61570.13;5080532;28;20345;-54
2022/11/21 02:07:03;;;;;;;;;;;;;;;-147.11;100.00;61570.13;5081194;28;20037;-53
2022/11/21 02:09:30;;;;;;;;;;;;;;;-147.11;100.00;61570.13;5081707;28;19920;-53
2022/11/21 02:12:07;;;;;;;;;;;;;;;-147.11;100.00;61570.13;5088748;28;20382;-52
2022/11/21 02:14:32;;;;;;;;;;;;;;;-147.11;100.00;61570.13;5080364;28;19967;-54
2022/11/21 02:17:00;;;;;;;;;;;;;;;-147.11;100.00;61570.13;5080770;28;19967;-53
2022/11/21 02:19:32;;;;;;;;;;;;;;;-147.11;100.00;61570.13;5084437;28;19923;-52
2022/11/21 02:21:57;;;;;;;;;;;;;;;-147.11;100.00;61570.13;5082756;28;20387;-53
2022/11/21 02:24:31;;;;;;;;;;;;;;;-147.11;100.00;61570.13;5080762;28;19924;-52
2022/11/21 02:26:58;;;;;;;;;;;;;;;-147.11;100.00;61570.13;5083123;28;20448;-54
2022/11/21 02:29:24;;;;;;;;;;;;;;;-147.11;100.00;61570.13;5080566;28;19924;-52
2022/11/21 02:31:51;;;;;;;;;;;;;;;-147.11;100.00;61570.13;5081856;28;20380;-53
2022/11/21 02:34:16;;;;;;;;;;;;;;;-147.11;100.00;61570.13;5077527;28;19931;-53
2022/11/21 02:36:43;;;;;;;;;;;;;;;-147.11;100.00;61570.13;5079232;28;19924;-52
2022/11/21 02:39:13;;;;;;;;;;;;;;;-147.11;100.00;61570.13;5073892;28;19924;-53
2022/11/21 02:41:42;;;;;;;;;;;;;;;-147.11;100.00;61570.13;5083934;28;20007;-52
2022/11/21 02:44:09;;;;;;;;;;;;;;;-147.11;100.00;61570.13;5082534;28;19924;-55
2022/11/21 02:46:35;;;;;;;;;;;;;;;-147.11;100.00;61570.13;5071872;28;19916;-54
2022/11/21 02:49:03;;;;;;;;;;;;;;;-147.11;100.00;61570.13;5084881;28;19936;-56
2022/11/21 02:51:28;;;;;;;;;;;;;;;-147.11;100.00;61570.13;5085207;28;19916;-53
2022/11/21 02:53:53;;;;;;;;;;;;;;;-147.11;100.00;61570.13;5087024;28;19974;-52
2022/11/21 02:56:19;;;;;;;;;;;;;;;-147.11;100.00;61570.13;5081491;28;20580;-53
2022/11/21 02:58:44;;;;;;;;;;;;;;;-147.11;100.00;61570.13;5081073;28;19960;-55
2022/11/21 03:01:09;;;;;;;;;;;;;;;-147.11;100.00;61570.13;5078920;28;19916;-52
2022/11/21 03:03:35;;;;;;;;;;;;;;;-147.11;100.00;61570.13;5084068;28;19988;-52
2022/11/21 03:06:00;;;;;;;;;;;;;;;-147.11;100.00;61570.13;5076527;28;20405;-53
2022/11/21 03:08:25;;;;;;;;;;;;;;;-147.11;100.00;61570.13;5061363;28;19961;-52
2022/11/21 03:10:51;;;;;;;;;;;;;;;-147.11;100.00;61570.13;5063860;28;19928;-54
2022/11/21 03:13:16;;;;;;;;;;;;;;;-147.11;100.00;61570.13;5076903;28;19926;-53
2022/11/21 03:15:41;;;;;;;;;;;;;;;-147.11;100.00;61570.13;5075722;28;19920;-52
2022/11/21 03:18:07;;;;;;;;;;;;;;;-147.11;100.00;61570.13;5063701;28;19920;-53
2022/11/21 03:20:33;;;;;;;;;;;;;;;-147.11;100.00;61570.13;5079864;28;20294;-56
2022/11/21 03:22:59;;;;;;;;;;;;;;;-147.11;100.00;61570.13;5082141;28;19982;-55
2022/11/21 03:25:24;;;;;;;;;;;;;;;-147.11;100.00;61570.13;5082723;28;19960;-53
2022/11/21 03:27:50;;;;;;;;;;;;;;;-147.11;100.00;61570.13;5085377;28;20368;-53
2022/11/21 03:30:15;;;;;;;;;;;;;;;-147.11;100.00;61570.13;5082538;28;19928;-54
2022/11/21 03:32:41;;;;;;;;;;;;;;;-147.11;100.00;61570.13;5086997;28;20018;-53
2022/11/21 03:35:06;;;;;;;;;;;;;;;-147.11;100.00;61570.13;5077701;28;19920;-53
2022/11/21 03:37:31;;;;;;;;;;;;;;;-147.11;100.00;61570.13;5081232;28;20446;-53
2022/11/21 03:39:57;;;;;;;;;;;;;;;-147.11;100.00;61570.13;5086979;28;19922;-54
2022/11/21 03:42:22;;;;;;;;;;;;;;;-147.11;100.00;61570.13;5086353;28;19923;-52
2022/11/21 03:44:47;;;;;;;;;;;;;;;-147.11;100.00;61570.13;5069360;28;20375;-56
2022/11/21 03:47:13;;;;;;;;;;;;;;;-147.11;100.00;61570.13;5087917;28;19924;-52
2022/11/21 03:49:38;;;;;;;;;;;;;;;-147.11;100.00;61570.13;5082898;28;19920;-53
2022/11/21 03:52:03;;;;;;;;;;;;;;;-147.11;100.00;61570.13;5086111;28;19955;-53
2022/11/21 03:54:28;;;;;;;;;;;;;;;-147.11;100.00;61570.13;5085023;28;19927;-53
2022/11/21 03:56:54;;;;;;;;;;;;;;;-147.11;100.00;61570.13;5085704;28;19932;-54
2022/11/21 03:59:19;;;;;;;;;;;;;;;-147.11;100.00;61570.13;5067078;28;19924;-53
2022/11/21 04:01:45;;;;;;;;;;;;;;;-147.11;100.00;61570.13;5089771;28;19923;-54
2022/11/21 04:04:10;;;;;;;;;;;;;;;-147.11;100.00;61570.13;5085681;28;19971;-54
2022/11/21 04:06:36;;;;;;;;;;;;;;;-147.11;100.00;61570.13;5083580;28;19955;-52
2022/11/21 04:09:01;;;;;;;;;;;;;;;-147.11;100.00;61570.13;5088936;28;20375;-54
2022/11/21 04:11:26;;;;;;;;;;;;;;;-147.11;100.00;61570.13;5086700;28;19951;-53
2022/11/21 04:13:52;;;;;;;;;;;;;;;-147.11;100.00;61570.13;5083994;28;19973;-52
2022/11/21 04:16:17;;;;;;;;;;;;;;;-147.11;100.00;61570.13;5079492;28;19916;-52
2022/11/21 04:18:43;;;;;;;;;;;;;;;-147.11;100.00;61570.13;5079509;28;20006;-54
2022/11/21 04:21:08;;;;;;;;;;;;;;;-147.11;100.00;61570.13;5082317;28;20051;-54
2022/11/21 04:23:34;;;;;;;;;;;;;;;-147.11;100.00;61570.13;5082045;28;19934;-52
2022/11/21 04:25:59;;;;;;;;;;;;;;;-147.11;100.00;61570.13;5079973;28;19948;-53
2022/11/21 04:28:25;;;;;;;;;;;;;;;-147.11;100.00;61570.13;5085334;28;20019;-53
2022/11/21 04:30:50;;;;;;;;;;;;;;;-147.11;100.00;61570.13;5077501;28;20639;-56
2022/11/21 04:33:16;;;;;;;;;;;;;;;-147.11;100.00;61570.13;5085587;28;19916;-53
2022/11/21 04:35:42;;;;;;;;;;;;;;;-147.11;100.00;61570.13;5082157;28;19920;-52
2022/11/21 04:38:07;;;;;;;;;;;;;;;-147.11;100.00;61570.13;5078706;28;19959;-53
2022/11/21 04:40:33;;;;;;;;;;;;;;;-147.11;100.00;61570.13;5091107;28;19923;-52
2022/11/21 04:42:58;;;;;;;;;;;;;;;-147.11;100.00;61570.13;5081006;28;19924;-52
2022/11/21 04:45:24;;;;;;;;;;;;;;;-147.11;100.00;61570.13;5078751;28;20308;-52
2022/11/21 04:47:49;;;;;;;;;;;;;;;-147.11;100.00;61570.13;5073433;28;19921;-53
2022/11/21 04:50:16;;;;;;;;;;;;;;;-147.11;100.00;61570.13;5084094;28;19927;-52
2022/11/21 04:52:41;;;;;;;;;;;;;;;-147.11;100.00;61570.13;5072790;28;19932;-54
2022/11/21 04:55:07;;;;;;;;;;;;;;;-147.11;100.00;61570.13;5077909;28;19922;-51
2022/11/21 04:57:32;;;;;;;;;;;;;;;-147.11;100.00;61570.13;5079731;28;20433;-52
2022/11/21 04:59:58;;;;;;;;;;;;;;;-147.11;100.00;61570.13;5084080;28;19927;-53
2022/11/21 05:02:23;;;;;;;;;;;;;;;-147.11;100.00;61570.13;5085091;28;19928;-55
2022/11/21 05:04:49;;;;;;;;;;;;;;;-147.11;100.00;61570.13;5079712;28;19928;-53
2022/11/21 05:07:14;;;;;;;;;;;;;;;-147.11;100.00;61570.13;5085739;28;19916;-52
2022/11/21 05:09:39;;;;;;;;;;;;;;;-147.11;100.00;61570.13;5089656;28;19924;-54
2022/11/21 05:14:49;;;;;;;;;;;;;;;-147.11;100.00;61570.13;5071443;28;19923;-53
2022/11/21 05:17:14;;;;;;;;;;;;;;;-147.11;100.00;61570.13;5081895;28;19920;-51
2022/11/21 05:19:40;;;;;;;;;;;;;;;-147.11;100.00;61570.13;5085903;28;19919;-53
2022/11/21 05:22:05;;;;;;;;;;;;;;;-147.11;100.00;61570.13;5065106;28;20022;-52
2022/11/21 05:24:31;;;;;;;;;;;;;;;-147.11;100.00;61570.13;5080514;28;19932;-53
2022/11/21 05:26:56;;;;;;;;;;;;;;;-147.11;100.00;61570.13;5085633;28;19927;-52
2022/11/21 05:29:21;;;;;;;;;;;;;;;-147.11;100.00;61570.13;5069198;28;19924;-52
2022/11/21 05:31:47;;;;;;;;;;;;;;;-147.11;100.00;61570.13;5075099;28;19956;-53
2022/11/21 05:34:12;;;;;;;;;;;;;;;-147.11;100.00;61570.13;5082835;28;19926;-53
2022/11/21 05:36:37;;;;;;;;;;;;;;;-147.11;100.00;61570.13;5083760;28;20444;-52
2022/11/21 05:39:03;;;;;;;;;;;;;;;-147.11;100.00;61570.13;5077193;28;19924;-54
2022/11/21 05:41:28;;;;;;;;;;;;;;;-147.11;100.00;61570.13;5083277;28;19916;-52
2022/11/21 05:43:54;;;;;;;;;;;;;;;-147.11;100.00;61570.13;5087453;28;19916;-51
2022/11/21 05:46:20;;;;;;;;;;;;;;;-147.11;100.00;61570.13;5081950;28;19971;-51
2022/11/21 05:48:46;;;;;;;;;;;;;;;-147.11;100.00;61570.13;5079719;28;19921;-51
2022/11/21 05:51:12;;;;;;;;;;;;;;;-147.11;100.00;61570.13;5083003;28;19935;-51
2022/11/21 05:53:39;;;;;;;;;;;;;;;-147.11;100.00;61570.13;5080699;28;19920;-54
2022/11/21 05:56:06;;;;;;;;;;;;;;;-147.11;100.00;61570.13;5086725;28;20328;-52
2022/11/21 05:58:32;;;;;;;;;;;;;;;-147.11;100.00;61570.13;5074214;28;19955;-53
2022/11/21 06:00:58;;;;;;;;;;;;;;;-147.11;100.00;61570.13;5075341;28;21245;-54
2022/11/21 06:03:26;;;;;;;;;;;;;;;-147.11;100.00;61570.13;5082840;28;20383;-53
2022/11/21 06:06:01;;;;;;;;;;;;;;;-147.11;100.00;61570.13;5084132;28;20641;-53
2022/11/21 06:08:28;;;;;;;;;;;;;;;-147.11;100.00;61570.13;5083420;28;20287;-53
2022/11/21 06:10:53;;;;;;;;;;;;;;;-147.11;100.00;61570.13;5087688;28;19927;-54
2022/11/21 06:13:22;;;;;;;;;;;;;;;-147.11;100.00;61570.13;5069265;28;19974;-54
2022/11/21 06:15:57;;;;;;;;;;;;;;;-147.11;100.00;61570.13;5089162;28;19959;-52
2022/11/21 06:18:22;;;;;;;;;;;;;;;-147.11;100.00;61570.13;5089289;28;19935;-52
2022/11/21 06:20:48;;;;;;;;;;;;;;;-147.11;100.00;61570.13;5075608;28;19920;-54
2022/11/21 06:23:13;;;;;;;;;;;;;;;-147.11;100.00;61570.13;5086397;28;20018;-52
2022/11/21 06:25:38;;;;;;;;;;;;;;;-147.11;100.00;61570.13;5087280;28;20002;-53
2022/11/21 06:28:04;;;;;;;;;;;;;;;-147.11;100.00;61570.13;5083611;28;20405;-52
2022/11/21 06:30:29;;;;;;;;;;;;;;;-147.11;100.00;61570.13;5088826;28;19924;-53
2022/11/21 06:32:54;;;;;;;;;;;;;;;-147.11;100.00;61570.13;5081838;28;20372;-53
2022/11/21 06:35:19;;;;;;;;;;;;;;;-147.11;100.00;61570.13;5090445;28;20006;-52
2022/11/21 06:37:45;;;;;;;;;;;;;;;-147.11;100.00;61570.13;5090485;28;19916;-53
2022/11/21 06:40:10;;;;;;;;;;;;;;;-147.11;100.00;61570.13;5087116;28;19920;-53
2022/11/21 06:42:36;;;;;;;;;;;;;;;-147.11;100.00;61570.13;5082251;28;19920;-54
2022/11/21 06:45:02;;;;;;;;;;;;;;;-147.11;100.00;61570.13;5089728;28;19919;-53
2022/11/21 06:47:27;;;;;;;;;;;;;;;-147.11;100.00;61570.13;5091886;28;20295;-53
2022/11/21 06:49:52;;;;;;;;;;;;;;;-147.11;100.00;61570.13;5083887;28;20371;-52
2022/11/21 06:52:18;;;;;;;;;;;;;;;-147.11;100.00;61570.13;5089915;28;19924;-54
2022/11/21 06:54:43;;;;;;;;;;;;;;;-147.11;100.00;61570.13;5089153;28;19969;-54
2022/11/21 06:57:08;;;;;;;;;;;;;;;-147.11;100.00;61570.13;5085191;28;19924;-52
2022/11/21 06:59:33;;;;;;;;;;;;;;;-147.11;100.00;61570.13;5094516;28;20402;-53
2022/11/21 07:01:59;;;;;;;;;;;;;;;-147.11;100.00;61570.13;5093107;28;19916;-52
2022/11/21 07:04:24;;;;;;;;;;;;;;;-147.11;100.00;61570.13;5078310;28;19970;-53
2022/11/21 07:06:50;;;;;;;;;;;;;;;-147.11;100.00;61570.13;5093094;28;19920;-54
2022/11/21 07:09:15;;;;;;;;;;;;;;;-147.11;100.00;61570.13;5085166;28;19920;-52
2022/11/21 07:11:40;;;;;;;;;;;;;;;-147.11;100.00;61570.13;5091801;28;19926;-54
2022/11/21 07:14:05;;;;;;;;;;;;;;;-147.11;100.00;61570.13;5094198;28;20022;-53
2022/11/21 07:16:32;;;;;;;;;;;;;;;-147.11;100.00;61570.13;5081842;28;20318;-53
2022/11/21 07:18:59;;;;;;;;;;;;;;;-147.11;100.00;61570.13;5093689;28;19920;-54
2022/11/21 07:21:24;;;;;;;;;;;;;;;-147.11;100.00;61570.13;5091413;28;19916;-53
2022/11/21 07:23:49;;;;;;;;;;;;;;;-147.11;100.00;61570.13;5092815;28;20366;-54
2022/11/21 07:26:15;;;;;;;;;;;;;;;-147.11;100.00;61570.13;5086785;28;19920;-55
2022/11/21 07:28:40;;;;;;;;;;;;;;;-147.11;100.00;61570.13;5092664;28;19916;-53
2022/11/21 07:31:05;;;;;;;;;;;;;;;-147.11;100.00;61570.13;5089188;28;20410;-52
2022/11/21 07:33:31;;;;;;;;;;;;;;;-147.11;100.00;61570.13;5069396;28;19925;-53
2022/11/21 07:35:57;;;;;;;;;;;;;;;-147.11;100.00;61570.13;5082046;28;19935;-53
2022/11/21 07:38:22;;;;;;;;;;;;;;;-147.11;100.00;61570.13;5089754;28;19940;-53
2022/11/21 07:40:48;;;;;;;;;;;;;;;-147.11;100.00;61570.13;5089386;28;19927;-54
2022/11/21 07:43:13;;;;;;;;;;;;;;;-147.11;100.00;61570.13;5093641;28;19985;-53
2022/11/21 07:45:38;;;;;;;;;;;;;;;-147.11;100.00;61570.13;5092929;28;20009;-55
2022/11/21 07:48:05;;;;;;;;;;;;;;;-147.11;100.00;61570.13;5093036;28;20295;-53
2022/11/21 07:50:30;;;;;;;;;;;;;;;-147.11;100.00;61570.13;5090063;28;19920;-53
2022/11/21 07:52:56;;;;;;;;;;;;;;;-147.11;100.00;61570.13;5095911;28;19974;-53
2022/11/21 07:55:22;;;;;;;;;;;;;;;-147.11;100.00;61570.13;5089429;28;19928;-53
2022/11/21 07:57:55;;;;;;;;;;;;;;;-147.11;100.00;61570.13;5093528;28;20290;-53
2022/11/21 08:00:21;;;;;;;;;;;;;;;-147.11;100.00;61570.13;5095948;28;19913;-53
2022/11/21 08:02:46;;;;;;;;;;;;;;;-147.11;100.00;61570.13;5092113;28;19916;-52
2022/11/21 08:05:11;;;;;;;;;;;;;;;-147.11;100.00;61570.13;5071405;28;19920;-53
2022/11/21 08:07:37;;;;;;;;;;;;;;;-147.11;100.00;61570.13;5090571;28;19920;-53
2022/11/21 08:10:02;;;;;;;;;;;;;;;-147.11;100.00;61570.13;5086606;28;19921;-53
2022/11/21 08:12:28;;;;;;;;;;;;;;;-147.11;100.00;61570.13;5072633;28;20418;-53
2022/11/21 08:14:53;;;;;;;;;;;;;;;-147.11;100.00;61570.13;5088412;28;19923;-53
2022/11/21 08:17:18;;;;;;;;;;;;;;;1.63;67.82;100277.97;5089077;28;20306;-53
2022/11/21 08:19:43;;;;;;;;;;;;;;;1.48;67.74;100277.50;5082677;28;19966;-54
2022/11/21 08:22:09;;;;;;;;;;;;;;;1.55;68.44;100278.16;5085421;28;19955;-54
2022/11/21 08:24:34;;;;;;;;;;;;;;;1.61;68.38;100279.75;5088959;28;19947;-53
2022/11/21 08:26:59;;;;;;;;;;;;;;;1.63;67.98;100280.56;5073063;28;20390;-53
2022/11/21 08:29:25;;;;;;;;;;;;;;;1.68;68.03;100286.47;5090696;28;20010;-53
2022/11/21 08:31:50;;;;;;;;;;;;;;;1.70;67.88;100284.69;5089866;28;19928;-53
2022/11/21 08:34:16;;;;;;;;;;;;;;;1.58;68.05;100287.63;5091959;28;20294;-53
2022/11/21 08:36:41;;;;;;;;;;;;;;;1.55;67.89;100283.34;5089973;28;19924;-53
2022/11/21 08:39:06;;;;;;;;;;;;;;;1.54;68.15;100286.00;5087264;28;19920;-53
2022/11/21 08:44:16;;;;;;;;;;;;;;;1.45;68.15;100281.91;5090209;28;19951;-53
2022/11/21 08:46:41;;;;;;;;;;;;;;;1.52;68.06;100286.91;5069201;28;20333;-53
2022/11/21 08:49:07;;;;;;;;;;;;;;;1.55;68.03;100279.94;5089622;28;20287;-53
2022/11/21 08:51:32;;;;;;;;;;;;;;;1.60;67.95;100281.50;5091986;28;20011;-52
2022/11/21 08:53:58;;;;;;;;;;;;;;;1.60;67.56;100280.63;5088273;28;19916;-53
2022/11/21 08:56:23;;;;;;;;;;;;;;;1.64;68.10;100287.44;5089606;28;19927;-53
2022/11/21 08:58:49;;;;;;;;;;;;;;;1.61;68.35;100292.72;5087828;28;19920;-53
2022/11/21 09:01:14;;;;;;;;;;;;;;;1.49;68.12;100292.16;5090685;28;20007;-53
2022/11/21 09:03:39;;;;;;;;;;;;;;;1.36;68.07;100288.19;5084416;28;19920;-53
2022/11/21 09:06:05;;;;;;;;;;;;;;;1.45;68.18;100293.13;5090067;28;19970;-53
2022/11/21 09:08:30;;;;;;;;;;;;;;;1.54;68.05;100288.59;5093011;28;19912;-53
2022/11/21 09:10:56;;;;;;;;;;;;;;;1.61;68.76;100297.91;5083819;28;19932;-53
2022/11/21 09:13:22;;;;;;;;;;;;;;;1.68;68.01;100299.44;5077339;28;20382;-52
2022/11/21 09:18:31;;;;;;;;;;;;;;;1.79;67.65;100305.16;5091969;28;20329;-53
2022/11/21 09:20:56;;;;;;;;;;;;;;;1.85;67.65;100305.91;5067482;28;19920;-53
2022/11/21 09:23:22;;;;;;;;;;;;;;;1.91;67.34;100308.31;5083167;28;20010;-53
2022/11/21 09:25:47;;;;;;;;;;;;;;;1.89;67.03;100312.72;5093041;28;19950;-53
2022/11/21 09:28:13;;;;;;;;;;;;;;;1.89;67.50;100317.91;5090554;28;20287;-53
2022/11/21 09:30:38;;;;;;;;;;;;;;;1.70;67.22;100327.91;5080812;28;20376;-54
2022/11/21 09:33:05;;;;;;;;;;;;;;;1.76;67.31;100322.56;5085900;28;20410;-53
2022/11/21 09:35:30;;;;;;;;;;;;;;;1.88;67.19;100326.56;5069014;28;20364;-54
2022/11/21 09:37:56;;;;;;;;;;;;;;;1.87;66.87;100317.09;5089365;28;19939;-54
2022/11/21 09:40:21;;;;;;;;;;;;;;;1.90;66.78;100319.56;5082422;28;20339;-53
2022/11/21 09:43:02;;;;;;;;;;;;;;;1.87;67.24;100319.69;5081965;28;20014;-53
2022/11/21 09:45:33;;;;;;;;;;;;;;;1.88;67.22;100321.38;5091424;28;19969;-53
2022/11/21 09:48:01;;;;;;;;;;;;;;;1.93;66.78;100319.50;5088521;28;19916;-53
2022/11/21 09:50:44;;;;;;;;;;;;;;;1.57;67.08;100322.25;5088474;28;19931;-53
2022/11/21 09:53:12;;;;;;;;;;;;;;;1.51;67.32;100321.50;5088187;28;19931;-53
2022/11/21 09:56:04;;;;;;;;;;;;;;;1.48;67.37;100313.78;5092064;28;19974;-52
2022/11/21 09:58:36;;;;;;;;;;;;;;;1.61;68.11;100313.47;5087676;28;19961;-54
2022/11/21 10:01:01;;;;;;;;;;;;;;;1.59;67.60;100317.88;5088299;28;19920;-53
2022/11/21 10:03:29;;;;;;;;;;;;;;;1.66;67.33;100320.22;5091700;28;19916;-53
2022/11/21 10:06:09;;;;;;;;;;;;;;;1.68;67.25;100320.19;5094627;28;19915;-53
2022/11/21 10:08:37;;;;;;;;;;;;;;;1.63;67.11;100322.06;5079386;28;19916;-52
2022/11/21 10:11:14;;;;;;;;;;;;;;;1.76;67.09;100326.00;5078922;28;19920;-53
2022/11/21 10:13:39;;;;;;;;;;;;;;;1.78;67.34;100329.41;5078643;28;19924;-54
2022/11/21 10:16:11;;;;;;;;;;;;;;;1.56;67.63;100330.91;5066482;28;20025;-53
2022/11/21 10:18:39;;;;;;;;;;;;;;;1.17;68.91;100329.31;5077400;28;19999;-53
2022/11/21 10:21:13;;;;;;;;;;;;;;;1.35;68.76;100325.38;5078386;28;19920;-53
2022/11/21 10:23:38;;;;;;;;;;;;;;;1.45;68.98;100326.84;5078917;28;19969;-53
2022/11/21 10:26:23;;;;;;;;;;;;;;;1.35;68.62;100327.97;5091813;28;19920;-52
2022/11/21 10:28:48;;;;;;;;;;;;;;;1.43;68.26;100320.88;5084431;28;19916;-53
2022/11/21 10:31:14;;;;;;;;;;;;;;;1.48;68.56;100324.16;5089721;28;19923;-53
2022/11/21 10:33:40;;;;;;;;;;;;;;;1.38;67.93;100317.53;5091756;28;20401;-53
2022/11/21 10:36:12;;;;;;;;;;;;;;;1.54;68.42;100330.09;5093043;28;19919;-52
2022/11/21 10:38:39;;;;;;;;;;;;;;;1.66;67.74;100332.34;5087145;28;19917;-53
2022/11/21 10:41:28;;;;;;;;;;;;;;;1.76;67.63;100333.78;5087334;28;19939;-52
2022/11/21 10:46:53;;;;;;;;;;;;;;;1.77;67.85;100340.69;5090748;28;19920;-52
2022/11/21 10:49:18;;;;;;;;;;;;;;;1.80;67.39;100338.00;5085768;28;19915;-53
2022/11/21 10:51:50;;;;;;;;;;;;;;;1.78;67.16;100342.38;5094252;28;20302;-53
2022/11/21 10:54:31;;;;;;;;;;;;;;;1.85;67.45;100339.63;5094010;28;19920;-53
2022/11/21 10:57:11;;;;;;;;;;;;;;;1.85;67.29;100343.06;5084011;28;20295;-52
2022/11/21 10:59:37;;;;;;;;;;;;;;;1.72;67.64;100346.88;5091532;28;19916;-53
2022/11/21 11:02:21;;;;;;;;;;;;;;;1.83;67.13;100350.91;5092958;28;19927;-54
2022/11/21 11:04:46;;;;;;;;;;;;;;;1.78;67.18;100349.31;5091312;28;20444;-53
2022/11/21 11:07:22;;;;;;;;;;;;;;;1.85;67.17;100357.78;5092058;28;19932;-54
2022/11/21 11:09:47;;;;;;;;;;;;;;;1.73;67.44;100356.38;5092844;28;19912;-53
2022/11/21 11:13:32;;;;;;;;;;;;;;;1.56;67.55;100352.50;5091319;28;19924;-52
2022/11/21 11:15:21;;;;;;;;;;;;;;;1.58;67.46;100357.66;5083195;28;19943;-53
2022/11/21 11:17:51;;;;;;;;;;;;;;;1.64;67.36;100362.66;5091076;28;19916;-53
2022/11/21 11:20:32;;;;;;;;;;;;;;;1.48;67.24;100355.28;5089313;28;19916;-52
2022/11/21 11:22:57;;;;;;;;;;;;;;;1.37;67.66;100359.91;5088055;28;19969;-53
2022/11/21 11:25:23;;;;;;;;;;;;;;;1.58;67.52;100361.09;5092202;28;19927;-52
2022/11/21 11:27:48;;;;;;;;;;;;;;;1.54;67.37;100358.63;5093269;28;19920;-54
2022/11/21 11:30:15;;;;;;;;;;;;;;;1.68;67.43;100364.28;5090306;28;19928;-53
2022/11/21 11:32:40;;;;;;;;;;;;;;;1.73;66.49;100358.97;5098418;28;20408;-53
2022/11/21 11:35:11;;;;;;;;;;;;;;;1.76;66.65;100362.31;5083129;28;19920;-53
2022/11/21 11:37:37;;;;;;;;;;;;;;;1.80;66.73;100366.53;5085179;28;19961;-55
2022/11/21 11:40:02;;;;;;;;;;;;;;;1.76;66.60;100370.09;5091333;28;19920;-52
2022/11/21 11:48:20;;;;;;;;;;;;;;;1.21;67.90;100368.06;5091084;28;19923;-53
2022/11/21 11:50:55;;;;;;;;;;;;;;;1.25;68.09;100368.00;5089561;28;19916;-53
2022/11/21 11:53:23;;;;;;;;;;;;;;;1.29;68.07;100373.06;5067394;28;19920;-53
2022/11/21 11:55:51;;;;;;;;;;;;;;;1.42;67.66;100360.66;5097096;28;19920;-52
2022/11/21 11:58:22;;;;;;;;;;;;;;;1.13;67.92;100351.88;5095160;28;19915;-53
2022/11/21 12:00:56;;;;;;;;;;;;;;;1.06;68.20;100358.09;5086961;28;19919;-53
2022/11/21 12:03:28;;;;;;;;;;;;;;;0.87;68.33;100355.94;5088202;28;19918;-53
2022/11/21 12:05:57;;;;;;;;;;;;;;;0.83;69.37;100350.84;5090559;28;19928;-53
2022/11/21 12:08:32;;;;;;;;;;;;;;;1.00;68.96;100351.31;5087146;28;20292;-53
2022/11/21 12:13:47;;;;;;;;;;;;;;;1.31;68.55;100362.66;5091054;28;19923;-53
2022/11/21 12:16:13;;;;;;;;;;;;;;;1.44;68.17;100358.84;5075238;28;19915;-53
2022/11/21 12:18:47;;;;;;;;;;;;;;;1.51;68.03;100360.41;5090974;28;20375;-52
2022/11/21 12:21:19;;;;;;;;;;;;;;;1.55;67.92;100357.72;5090350;28;19930;-54
2022/11/21 12:23:45;;;;;;;;;;;;;;;1.59;67.95;100359.34;5090442;28;19969;-54
2022/11/21 12:26:29;;;;;;;;;;;;;;;1.66;67.48;100358.28;5095023;28;19920;-52
2022/11/21 12:29:10;;;;;;;;;;;;;;;1.64;67.89;100360.06;5091106;28;19916;-54
2022/11/21 12:31:47;;;;;;;;;;;;;;;1.70;67.43;100365.09;5076055;28;20311;-53
2022/11/21 12:34:33;;;;;;;;;;;;;;;1.74;67.05;100366.69;5089664;28;19922;-52
2022/11/21 12:37:08;;;;;;;;;;;;;;;1.73;66.72;100375.41;5088830;28;20314;-52
2022/11/21 12:39:36;;;;;;;;;;;;;;;1.76;67.04;100367.50;5089928;28;19920;-52
2022/11/21 12:45:31;;;;;;;;;;;;;;;1.81;66.31;100368.25;5087649;28;20441;-52
2022/11/21 12:56:48;;;;;;;;;;;;;;;1.63;66.36;100371.34;5083130;28;20329;-52
2022/11/21 12:59:13;;;;;;;;;;;;;;;1.42;66.86;100363.25;5091516;28;19923;-52